Time;durP1;ratioP1;P1;durP2;ratioP2;P2;SDS_P1;SDS_P2;PMS_P1;PMS_P2;Temp;Humidity;BMP_temperature;BMP_pressure;BME280_temperature;BME280_humidity;BME280_pressure;Samples;Min_cycle;Max_cycle;Signal;HPM_P1;HPM_P2
2024/04/14 00:00:59;;;;;;;2.92;1.95;;;21.40;70.00;;;;;;5477137;26;19994;-42
2024/04/14 00:03:24;;;;;;;2.33;1.63;;;21.40;70.10;;;;;;5469169;26;20014;-43
2024/04/14 00:05:50;;;;;;;4.32;2.10;;;21.40;70.20;;;;;;5474728;26;20010;-42
2024/04/14 00:08:16;;;;;;;3.88;1.98;;;21.30;70.20;;;;;;5465263;26;19994;-43
2024/04/14 00:10:42;;;;;;;3.88;2.00;;;21.30;70.20;;;;;;5483046;26;19998;-43
2024/04/14 00:13:08;;;;;;;2.40;1.67;;;21.30;70.20;;;;;;5479713;26;20076;-43
2024/04/14 00:15:34;;;;;;;2.00;1.73;;;21.20;70.20;;;;;;5478212;26;20457;-43
2024/04/14 00:17:59;;;;;;;4.70;2.03;;;21.20;70.20;;;;;;5455855;26;19999;-41
2024/04/14 00:20:26;;;;;;;3.70;2.00;;;21.20;70.20;;;;;;5477227;26;19999;-43
2024/04/14 00:22:52;;;;;;;4.80;2.08;;;21.20;70.30;;;;;;5481924;26;20380;-43
2024/04/14 00:25:18;;;;;;;3.78;1.90;;;21.10;70.20;;;;;;5486755;26;20042;-43
2024/04/14 00:27:44;;;;;;;3.28;2.13;;;21.10;70.20;;;;;;5490790;26;20128;-43
2024/04/14 00:30:11;;;;;;;2.97;1.88;;;21.10;70.30;;;;;;5476991;26;19998;-43
2024/04/14 00:32:37;;;;;;;3.42;2.10;;;21.10;71.00;;;;;;5481297;26;19998;-43
2024/04/14 00:35:03;;;;;;;3.47;2.20;;;21.00;70.30;;;;;;5473847;26;20080;-43
2024/04/14 00:37:28;;;;;;;4.93;2.20;;;21.00;70.30;;;;;;5489087;26;19995;-43
2024/04/14 00:39:54;;;;;;;4.13;2.20;;;21.00;70.40;;;;;;5473445;26;20013;-43
2024/04/14 00:42:20;;;;;;;4.03;2.00;;;20.90;70.40;;;;;;5475677;26;19995;-43
2024/04/14 00:44:46;;;;;;;3.70;2.40;;;20.80;70.40;;;;;;5486234;26;20432;-43
2024/04/14 00:47:12;;;;;;;4.55;2.22;;;20.80;70.40;;;;;;5493370;26;20077;-43
2024/04/14 00:49:40;;;;;;;3.78;2.20;;;20.80;70.40;;;;;;5475102;26;20046;-42
2024/04/14 00:52:09;;;;;;;4.55;2.05;;;20.70;70.40;;;;;;5470426;26;20572;-43
2024/04/14 00:54:36;;;;;;;4.07;1.98;;;20.70;70.50;;;;;;5476357;26;20044;-42
2024/04/14 00:57:03;;;;;;;3.53;2.08;;;20.70;70.50;;;;;;5472760;26;20014;-43
2024/04/14 00:59:30;;;;;;;4.65;2.17;;;20.70;70.50;;;;;;5470471;26;20010;-43
2024/04/14 01:01:56;;;;;;;4.40;2.33;;;20.60;70.50;;;;;;5466881;26;19998;-42
2024/04/14 01:04:21;;;;;;;4.50;2.28;;;20.60;70.40;;;;;;5487295;26;19998;-43
2024/04/14 01:06:47;;;;;;;4.30;2.20;;;20.50;70.50;;;;;;5491138;26;20082;-43
2024/04/14 01:09:14;;;;;;;4.90;2.20;;;20.50;70.60;;;;;;5480940;26;20026;-42
2024/04/14 01:11:41;;;;;;;4.22;2.17;;;20.50;70.60;;;;;;5469867;26;20049;-43
2024/04/14 01:14:09;;;;;;;4.00;2.33;;;20.50;70.60;;;;;;5480036;26;19994;-43
2024/04/14 01:16:39;;;;;;;4.45;2.13;;;20.50;70.60;;;;;;5473574;26;20010;-43
2024/04/14 01:19:06;;;;;;;4.43;2.25;;;20.40;70.50;;;;;;5479993;26;20325;-35
2024/04/14 01:21:32;;;;;;;4.68;2.45;;;20.40;70.70;;;;;;5461508;26;20030;-35
2024/04/14 01:23:58;;;;;;;3.85;1.98;;;20.30;70.70;;;;;;5467232;26;20009;-35
2024/04/14 01:26:24;;;;;;;4.47;2.40;;;20.30;70.80;;;;;;5488863;26;20299;-34
2024/04/14 01:28:50;;;;;;;4.32;2.50;;;20.30;70.80;;;;;;5487584;26;20010;-35
2024/04/14 01:31:16;;;;;;;7.72;2.63;;;20.20;70.80;;;;;;5481970;26;20009;-35
2024/04/14 01:33:42;;;;;;;4.03;2.22;;;20.20;71.50;;;;;;5473746;26;19999;-35
2024/04/14 01:36:07;;;;;;;4.97;2.38;;;20.20;70.90;;;;;;5478941;26;19995;-35
2024/04/14 01:38:33;;;;;;;3.38;2.17;;;20.10;70.80;;;;;;5475299;26;19999;-34
2024/04/14 01:41:00;;;;;;;4.18;2.50;;;20.10;70.80;;;;;;5467241;26;19995;-35
2024/04/14 01:43:27;;;;;;;4.68;2.53;;;20.10;70.90;;;;;;5483566;26;19998;-35
2024/04/14 01:45:52;;;;;;;4.60;2.65;;;20.00;70.90;;;;;;5484756;26;19998;-35
2024/04/14 01:48:18;;;;;;;5.65;2.60;;;20.00;71.00;;;;;;5474338;26;20012;-34
2024/04/14 01:50:44;;;;;;;5.63;2.67;;;20.00;71.00;;;;;;5480628;26;20002;-35
2024/04/14 01:53:10;;;;;;;3.10;2.17;;;19.90;70.90;;;;;;5494315;26;20499;-34
2024/04/14 01:55:36;;;;;;;5.10;3.03;;;20.00;71.00;;;;;;5462290;26;19999;-35
2024/04/14 01:58:03;;;;;;;5.90;2.95;;;19.90;70.90;;;;;;5446294;26;20005;-34
2024/04/14 02:00:28;;;;;;;5.28;2.60;;;19.90;71.00;;;;;;5471264;26;20002;-34
2024/04/14 02:02:55;;;;;;;5.20;2.50;;;19.80;71.00;;;;;;5480935;26;20008;-35
2024/04/14 02:05:22;;;;;;;4.20;2.28;;;19.80;71.10;;;;;;5488793;26;20002;-34
2024/04/14 02:07:48;;;;;;;5.75;2.58;;;19.80;71.20;;;;;;5483762;26;20055;-36
2024/04/14 02:10:14;;;;;;;5.13;3.03;;;19.80;71.20;;;;;;5470777;26;19998;-35
2024/04/14 02:12:39;;;;;;;5.47;2.55;;;19.70;71.20;;;;;;5488670;26;20016;-35
2024/04/14 02:15:05;;;;;;;3.58;2.20;;;19.70;71.20;;;;;;5474044;26;19995;-34
2024/04/14 02:17:31;;;;;;;5.18;2.53;;;19.70;71.20;;;;;;5470718;26;19999;-37
2024/04/14 02:19:57;;;;;;;3.72;2.13;;;19.60;71.30;;;;;;5486386;26;19997;-35
2024/04/14 02:22:22;;;;;;;5.50;2.50;;;19.60;71.30;;;;;;5464218;26;20071;-35
2024/04/14 02:24:48;;;;;;;4.25;2.33;;;19.60;71.30;;;;;;5493249;26;20039;-35
2024/04/14 02:27:14;;;;;;;4.78;2.55;;;19.60;71.40;;;;;;5483115;26;20252;-34
2024/04/14 02:29:40;;;;;;;3.97;2.60;;;19.50;71.40;;;;;;5486279;26;20022;-35
2024/04/14 02:32:06;;;;;;;5.60;2.30;;;19.50;71.40;;;;;;5492365;26;19994;-34
2024/04/14 02:34:31;;;;;;;3.78;2.25;;;19.50;71.40;;;;;;5491038;26;19994;-35
2024/04/14 02:36:57;;;;;;;5.07;2.63;;;19.40;71.50;;;;;;5472487;26;20047;-34
2024/04/14 02:39:23;;;;;;;4.20;2.30;;;19.40;71.50;;;;;;5470122;26;20506;-34
2024/04/14 02:41:49;;;;;;;3.80;2.30;;;19.40;71.50;;;;;;5479631;26;20017;-34
2024/04/14 02:44:16;;;;;;;4.88;2.60;;;19.40;72.10;;;;;;5476748;26;20315;-34
2024/04/14 02:46:43;;;;;;;3.45;2.08;;;19.40;71.60;;;;;;5474245;26;20539;-34
2024/04/14 02:49:09;;;;;;;4.90;2.25;;;19.30;71.50;;;;;;5489168;26;20008;-35
2024/04/14 02:51:35;;;;;;;4.55;2.33;;;19.30;71.50;;;;;;5469578;26;20459;-34
2024/04/14 02:54:01;;;;;;;3.58;1.95;;;19.30;71.50;;;;;;5481506;26;20031;-41
2024/04/14 02:56:27;;;;;;;5.55;2.10;;;19.30;71.60;;;;;;5476541;26;20022;-34
2024/04/14 02:58:53;;;;;;;4.00;1.95;;;19.20;71.50;;;;;;5481103;26;19998;-34
2024/04/14 03:01:18;;;;;;;5.18;2.00;;;19.20;71.60;;;;;;5484035;26;20003;-34
2024/04/14 03:03:45;;;;;;;4.60;1.90;;;19.20;71.60;;;;;;5468456;26;19994;-35
2024/04/14 03:06:11;;;;;;;4.47;2.10;;;19.20;71.60;;;;;;5493234;26;20493;-34
2024/04/14 03:08:37;;;;;;;2.92;1.73;;;19.10;71.60;;;;;;5465738;26;20073;-34
2024/04/14 03:11:03;;;;;;;5.25;1.80;;;19.10;71.60;;;;;;5471318;26;20295;-34
2024/04/14 03:13:29;;;;;;;2.58;1.58;;;19.00;71.50;;;;;;5477262;26;20025;-34
2024/04/14 03:15:55;;;;;;;4.38;1.95;;;19.00;71.50;;;;;;5456190;26;20122;-35
2024/04/14 03:18:21;;;;;;;3.10;1.58;;;19.00;71.50;;;;;;5484132;26;20018;-34
2024/04/14 03:21:00;;;;;;;3.78;1.75;;;19.00;71.60;;;;;;5460695;26;20022;-36
2024/04/14 03:23:27;;;;;;;4.20;1.60;;;19.00;71.60;;;;;;5476405;26;20411;-35
2024/04/14 03:25:54;;;;;;;2.22;1.40;;;18.90;72.20;;;;;;5484343;26;20033;-35
2024/04/14 03:28:25;;;;;;;2.28;1.42;;;18.90;71.60;;;;;;5461740;26;20052;-35
2024/04/14 03:30:52;;;;;;;3.28;1.50;;;18.90;71.60;;;;;;5480883;26;20010;-35
2024/04/14 03:33:18;;;;;;;2.28;1.50;;;18.90;71.60;;;;;;5472863;26;20433;-34
2024/04/14 03:35:45;;;;;;;3.47;1.60;;;18.80;71.60;;;;;;5470467;26;20013;-35
2024/04/14 03:38:10;;;;;;;3.03;1.50;;;18.80;71.60;;;;;;5486738;26;20032;-40
2024/04/14 03:40:36;;;;;;;3.00;1.63;;;18.80;71.60;;;;;;5484318;26;20006;-34
2024/04/14 03:43:02;;;;;;;3.70;1.50;;;18.70;71.60;;;;;;5469599;26;20009;-35
2024/04/14 03:45:27;;;;;;;2.88;1.40;;;18.80;72.30;;;;;;5471376;26;20513;-35
2024/04/14 03:47:55;;;;;;;2.92;1.23;;;18.70;71.60;;;;;;5458486;26;19999;-35
2024/04/14 03:50:21;;;;;;;2.25;1.15;;;18.70;71.70;;;;;;5461767;26;20009;-34
2024/04/14 03:52:47;;;;;;;2.53;1.30;;;18.70;71.70;;;;;;5467311;26;20014;-34
2024/04/14 03:55:13;;;;;;;3.38;1.38;;;18.60;71.70;;;;;;5476637;26;20002;-35
2024/04/14 03:57:38;;;;;;;3.38;1.40;;;18.60;71.70;;;;;;5468716;26;19995;-35
2024/04/14 04:00:05;;;;;;;3.45;1.50;;;18.60;71.70;;;;;;5473121;26;20082;-35
2024/04/14 04:02:40;;;;;;;2.83;1.13;;;18.50;71.70;;;;;;5471913;26;20002;-35
2024/04/14 04:05:07;;;;;;;3.83;1.25;;;18.50;71.70;;;;;;5473657;26;20016;-35
2024/04/14 04:07:34;;;;;;;2.22;1.20;;;18.50;71.70;;;;;;5464486;26;19998;-34
2024/04/14 04:09:59;;;;;;;1.52;1.20;;;18.50;71.70;;;;;;5479062;26;20022;-34
2024/04/14 04:12:25;;;;;;;2.60;1.30;;;18.40;71.70;;;;;;5480420;26;20002;-35
2024/04/14 04:14:51;;;;;;;3.35;1.55;;;18.50;71.80;;;;;;5479998;26;20529;-35
2024/04/14 04:17:18;;;;;;;3.10;1.50;;;18.40;71.70;;;;;;5479245;26;20005;-34
2024/04/14 04:19:43;;;;;;;3.17;1.33;;;18.40;71.70;;;;;;5485123;26;20052;-35
2024/04/14 04:22:10;;;;;;;2.80;1.05;;;18.40;71.70;;;;;;5478804;26;20374;-35
2024/04/14 04:24:36;;;;;;;3.42;1.25;;;18.40;71.70;;;;;;5486462;26;20002;-34
2024/04/14 04:27:02;;;;;;;2.90;1.40;;;18.30;71.70;;;;;;5489242;26;20010;-35
2024/04/14 04:29:29;;;;;;;2.25;1.30;;;18.30;71.80;;;;;;5475530;26;20065;-34
2024/04/14 04:31:55;;;;;;;2.38;1.10;;;18.30;71.80;;;;;;5464374;26;20436;-35
2024/04/14 04:34:21;;;;;;;2.50;1.30;;;18.20;71.70;;;;;;5488507;26;20006;-35
2024/04/14 04:36:50;;;;;;;2.80;1.38;;;18.20;71.80;;;;;;5460287;26;19999;-35
2024/04/14 04:39:16;;;;;;;2.35;1.60;;;18.20;71.70;;;;;;5485235;26;19998;-34
2024/04/14 04:41:42;;;;;;;3.70;1.20;;;18.20;71.80;;;;;;5489254;26;20012;-35
2024/04/14 04:44:10;;;;;;;3.08;1.35;;;18.20;71.80;;;;;;5480954;26;19999;-38
2024/04/14 04:46:37;;;;;;;2.88;1.27;;;18.10;71.80;;;;;;5476170;26;20014;-39
2024/04/14 04:49:03;;;;;;;3.35;1.40;;;18.10;71.80;;;;;;5462144;26;19995;-38
2024/04/14 04:51:29;;;;;;;3.22;1.30;;;18.00;71.80;;;;;;5435954;26;20009;-39
2024/04/14 04:53:55;;;;;;;2.95;1.20;;;18.00;71.90;;;;;;5489738;26;20017;-39
2024/04/14 04:56:21;;;;;;;2.25;1.40;;;18.00;71.80;;;;;;5483964;26;19998;-39
2024/04/14 04:58:46;;;;;;;2.63;1.17;;;18.00;71.80;;;;;;5484066;26;20010;-39
2024/04/14 05:01:12;;;;;;;3.25;1.27;;;17.90;71.80;;;;;;5484595;26;20054;-39
2024/04/14 05:03:38;;;;;;;3.38;1.40;;;17.90;71.80;;;;;;5465419;26;20304;-38
2024/04/14 05:06:05;;;;;;;4.07;1.23;;;17.90;71.90;;;;;;5460285;26;20009;-38
2024/04/14 05:08:32;;;;;;;3.05;1.42;;;17.80;71.80;;;;;;5482582;26;20002;-39
2024/04/14 05:10:59;;;;;;;2.67;1.35;;;17.80;71.90;;;;;;5467482;26;20374;-39
2024/04/14 05:13:25;;;;;;;2.58;1.27;;;17.80;72.00;;;;;;5470540;26;20066;-39
2024/04/14 05:15:51;;;;;;;3.08;1.42;;;17.80;72.00;;;;;;5487324;26;20093;-40
2024/04/14 05:18:17;;;;;;;2.20;1.27;;;17.70;72.00;;;;;;5493870;26;20327;-39
2024/04/14 05:20:44;;;;;;;4.95;1.30;;;17.70;72.00;;;;;;5470779;26;20008;-40
2024/04/14 05:23:10;;;;;;;1.85;1.13;;;17.70;72.00;;;;;;5484263;26;19999;-39
2024/04/14 05:25:36;;;;;;;2.17;1.23;;;17.70;72.00;;;;;;5473781;26;20508;-42
2024/04/14 05:28:02;;;;;;;1.40;1.10;;;17.60;72.10;;;;;;5479302;26;20017;-38
2024/04/14 05:30:28;;;;;;;2.05;1.17;;;17.60;72.10;;;;;;5468406;26;19995;-37
2024/04/14 05:32:57;;;;;;;2.67;1.10;;;17.60;72.10;;;;;;5469518;26;19998;-37
2024/04/14 05:35:23;;;;;;;2.17;1.15;;;17.60;72.20;;;;;;5473595;26;20068;-38
2024/04/14 05:37:49;;;;;;;3.45;1.30;;;17.60;72.20;;;;;;5484403;26;19999;-38
2024/04/14 05:40:15;;;;;;;1.70;1.13;;;17.50;72.10;;;;;;5492205;26;20008;-38
2024/04/14 05:42:41;;;;;;;3.25;1.30;;;17.50;72.10;;;;;;5473173;26;20340;-39
2024/04/14 05:45:08;;;;;;;4.70;1.30;;;17.50;72.20;;;;;;5489172;26;20003;-38
2024/04/14 05:47:34;;;;;;;2.92;1.40;;;17.50;72.20;;;;;;5460935;26;19999;-38
2024/04/14 05:49:59;;;;;;;3.10;1.23;;;17.50;72.30;;;;;;5485236;26;20048;-38
2024/04/14 05:52:25;;;;;;;1.75;1.10;;;17.40;72.30;;;;;;5491776;26;19998;-38
2024/04/14 05:54:51;;;;;;;2.53;1.40;;;17.40;72.30;;;;;;5477555;26;20022;-38
2024/04/14 05:57:17;;;;;;;2.67;1.10;;;17.40;72.30;;;;;;5484379;26;20446;-38
2024/04/14 05:59:46;;;;;;;3.17;1.40;;;17.40;72.30;;;;;;5478920;26;20030;-38
2024/04/14 06:02:12;;;;;;;3.17;1.30;;;17.40;72.30;;;;;;5474880;26;20016;-38
2024/04/14 06:04:38;;;;;;;3.17;1.20;;;17.40;72.40;;;;;;5478535;26;20446;-38
2024/04/14 06:07:04;;;;;;;1.88;1.10;;;17.30;72.40;;;;;;5481930;26;20026;-38
2024/04/14 06:09:30;;;;;;;4.72;1.33;;;17.40;72.60;;;;;;5489834;26;20015;-38
2024/04/14 06:11:56;;;;;;;4.05;1.40;;;17.30;72.60;;;;;;5465792;26;20013;-38
2024/04/14 06:14:25;;;;;;;2.33;1.20;;;17.30;72.60;;;;;;5492157;26;19994;-38
2024/04/14 06:16:51;;;;;;;3.58;1.50;;;17.30;72.60;;;;;;5470936;26;20023;-38
2024/04/14 06:19:17;;;;;;;2.90;1.20;;;17.30;72.60;;;;;;5490195;26;19995;-38
2024/04/14 06:21:43;;;;;;;2.50;1.20;;;17.30;72.70;;;;;;5471320;26;19995;-38
2024/04/14 06:24:09;;;;;;;3.00;1.20;;;17.30;72.70;;;;;;5471489;26;20009;-38
2024/04/14 06:26:35;;;;;;;2.40;1.05;;;17.20;72.70;;;;;;5474060;26;19999;-38
2024/04/14 06:29:01;;;;;;;2.80;1.25;;;17.30;72.90;;;;;;5481976;26;20619;-38
2024/04/14 06:31:27;;;;;;;3.47;1.60;;;17.20;72.80;;;;;;5481291;26;20079;-39
2024/04/14 06:33:52;;;;;;;3.75;1.17;;;17.20;72.90;;;;;;5459896;26;19995;-42
2024/04/14 06:36:18;;;;;;;2.90;1.40;;;17.20;72.90;;;;;;5486900;26;20454;-38
2024/04/14 06:38:44;;;;;;;2.17;1.08;;;17.20;72.90;;;;;;5488248;26;20013;-37
2024/04/14 06:41:11;;;;;;;2.03;1.10;;;17.20;73.00;;;;;;5491213;26;20401;-39
2024/04/14 06:43:37;;;;;;;2.92;1.40;;;17.20;73.00;;;;;;5484497;26;20431;-38
2024/04/14 06:46:02;;;;;;;3.13;1.33;;;17.20;73.10;;;;;;5484221;26;20047;-38
2024/04/14 06:48:28;;;;;;;1.83;1.30;;;17.20;73.10;;;;;;5466653;26;20072;-38
2024/04/14 06:50:54;;;;;;;2.53;1.25;;;17.20;73.10;;;;;;5453969;26;20472;-37
2024/04/14 06:53:22;;;;;;;3.25;1.40;;;17.10;73.10;;;;;;5464266;26;20037;-38
2024/04/14 06:55:50;;;;;;;4.65;1.50;;;17.20;73.10;;;;;;5428753;26;20011;-37
2024/04/14 06:58:16;;;;;;;2.55;1.25;;;17.20;73.10;;;;;;5484030;26;19994;-38
2024/04/14 07:00:42;;;;;;;2.65;1.30;;;17.20;73.10;;;;;;5471768;26;20059;-39
2024/04/14 07:03:11;;;;;;;2.45;1.15;;;17.10;73.00;;;;;;5472889;26;20002;-39
2024/04/14 07:05:37;;;;;;;2.20;1.20;;;17.20;73.10;;;;;;5489573;26;20002;-37
2024/04/14 07:08:04;;;;;;;3.47;1.58;;;17.20;73.10;;;;;;5476569;26;20067;-40
2024/04/14 07:10:30;;;;;;;2.90;1.35;;;17.10;73.10;;;;;;5484326;26;19998;-39
2024/04/14 07:12:55;;;;;;;2.00;1.17;;;17.10;73.10;;;;;;5486822;26;20009;-38
2024/04/14 07:15:21;;;;;;;4.18;1.85;;;17.20;73.10;;;;;;5459224;26;20091;-38
2024/04/14 07:17:47;;;;;;;4.53;1.42;;;17.10;73.10;;;;;;5462813;26;20079;-38
2024/04/14 07:20:12;;;;;;;4.85;1.75;;;17.20;73.10;;;;;;5471400;26;20003;-39
2024/04/14 07:22:38;;;;;;;1.63;1.00;;;17.20;73.30;;;;;;5510470;26;20361;-39
2024/04/14 07:25:04;;;;;;;2.97;1.40;;;17.20;73.10;;;;;;5486225;26;19998;-39
2024/04/14 07:27:30;;;;;;;1.85;1.23;;;17.20;73.00;;;;;;5481733;26;20036;-39
2024/04/14 07:29:55;;;;;;;4.32;1.40;;;17.20;73.00;;;;;;5461456;26;20538;-38
2024/04/14 07:32:21;;;;;;;2.53;1.27;;;17.20;73.00;;;;;;5458802;26;20048;-39
2024/04/14 07:34:47;;;;;;;4.28;1.60;;;17.20;73.00;;;;;;5472124;26;20026;-38
2024/04/14 07:37:13;;;;;;;2.38;1.40;;;17.20;73.00;;;;;;5493995;26;19998;-40
2024/04/14 07:39:39;;;;;;;2.40;1.38;;;17.20;73.00;;;;;;5481849;26;20379;-39
2024/04/14 07:42:08;;;;;;;2.25;1.23;;;17.20;73.00;;;;;;5476815;26;20094;-39
2024/04/14 07:44:34;;;;;;;2.95;1.30;;;17.20;73.00;;;;;;5464231;26;20003;-39
2024/04/14 07:47:00;;;;;;;3.08;1.02;;;17.30;73.00;;;;;;5483687;26;20010;-45
2024/04/14 07:49:26;;;;;;;3.92;1.55;;;17.30;73.00;;;;;;5472131;26;20002;-39
2024/04/14 07:51:51;;;;;;;3.28;1.33;;;17.30;72.90;;;;;;5475885;26;19994;-38
2024/04/14 07:54:17;;;;;;;3.08;1.45;;;17.30;72.90;;;;;;5467344;26;20013;-39
2024/04/14 07:56:43;;;;;;;4.15;1.30;;;17.30;72.90;;;;;;5479124;26;19995;-38
2024/04/14 07:59:08;;;;;;;3.83;1.50;;;17.30;72.90;;;;;;5456300;26;20006;-39
2024/04/14 08:01:34;;;;;;;3.10;1.30;;;17.30;72.90;;;;;;5465241;26;19998;-39
2024/04/14 08:04:01;;;;;;;3.00;1.30;;;17.30;72.80;;;;;;5465615;26;20009;-39
2024/04/14 08:06:27;;;;;;;2.85;1.30;;;17.30;72.80;;;;;;5467253;26;20023;-39
2024/04/14 08:08:53;;;;;;;3.63;1.30;;;17.30;72.70;;;;;;5469082;26;19990;-38
2024/04/14 08:11:19;;;;;;;2.83;1.25;;;17.40;72.70;;;;;;5477058;26;20405;-39
2024/04/14 08:13:45;;;;;;;4.28;1.25;;;17.40;72.70;;;;;;5457969;26;20391;-39
2024/04/14 08:16:11;;;;;;;3.80;1.20;;;17.40;72.70;;;;;;5458554;26;19994;-39
2024/04/14 08:18:37;;;;;;;2.85;1.33;;;17.40;72.60;;;;;;5480411;26;19998;-38
2024/04/14 08:21:02;;;;;;;2.70;1.40;;;17.40;72.60;;;;;;5478961;26;20013;-39
2024/04/14 08:23:28;;;;;;;5.25;1.40;;;17.40;72.60;;;;;;5447675;26;20010;-39
2024/04/14 08:25:54;;;;;;;6.07;1.33;;;17.50;72.60;;;;;;5483543;26;20083;-39
2024/04/14 08:28:20;;;;;;;2.17;1.20;;;17.50;72.50;;;;;;5478050;26;19994;-39
2024/04/14 08:30:46;;;;;;;3.22;1.40;;;17.50;72.40;;;;;;5479612;26;19998;-38
2024/04/14 08:33:11;;;;;;;5.45;1.33;;;17.50;72.40;;;;;;5474823;26;20019;-38
2024/04/14 08:35:37;;;;;;;3.58;1.30;;;17.50;72.30;;;;;;5473483;26;20429;-38
2024/04/14 08:38:03;;;;;;;2.30;1.25;;;17.50;72.30;;;;;;5467211;26;20014;-37
2024/04/14 08:40:29;;;;;;;3.42;1.25;;;17.60;72.30;;;;;;5481603;26;19991;-38
2024/04/14 08:42:55;;;;;;;1.90;1.08;;;17.60;72.20;;;;;;5470248;26;20466;-39
2024/04/14 08:45:24;;;;;;;3.78;1.40;;;17.60;72.10;;;;;;5462634;25;19995;-38
2024/04/14 08:47:54;;;;;;;3.90;1.42;;;17.60;72.10;;;;;;5468881;26;19998;-38
2024/04/14 08:50:22;;;;;;;3.03;1.25;;;17.70;72.10;;;;;;5464678;26;19995;-38
2024/04/14 08:52:48;;;;;;;3.40;1.30;;;17.70;72.00;;;;;;5459438;26;20014;-39
2024/04/14 08:55:14;;;;;;;4.72;1.40;;;17.70;71.90;;;;;;5481926;25;20014;-39
2024/04/14 08:57:41;;;;;;;2.90;1.10;;;17.70;71.90;;;;;;5475722;26;20006;-39
2024/04/14 09:00:12;;;;;;;2.63;1.30;;;17.80;71.80;;;;;;5466557;26;20004;-39
2024/04/14 09:02:42;;;;;;;2.17;1.20;;;17.80;71.70;;;;;;5481134;26;20383;-39
2024/04/14 09:05:09;;;;;;;3.00;1.20;;;17.80;71.60;;;;;;5465974;26;20030;-38
2024/04/14 09:07:35;;;;;;;3.78;1.35;;;17.90;71.50;;;;;;5462698;26;20385;-39
2024/04/14 09:10:01;;;;;;;2.33;1.23;;;17.90;71.50;;;;;;5492417;26;20018;-39
2024/04/14 09:12:29;;;;;;;2.90;1.20;;;17.90;72.10;;;;;;5448376;26;20533;-39
2024/04/14 09:14:55;;;;;;;2.53;1.10;;;17.90;71.30;;;;;;5464717;26;20011;-40
2024/04/14 09:17:21;;;;;;;3.70;1.27;;;18.00;71.30;;;;;;5465963;26;19998;-39
2024/04/14 09:19:46;;;;;;;2.50;1.45;;;18.00;71.20;;;;;;5455601;26;20547;-39
2024/04/14 09:22:16;;;;;;;3.63;1.55;;;18.00;71.20;;;;;;5466103;26;20030;-38
2024/04/14 09:24:42;;;;;;;3.15;1.20;;;18.00;71.10;;;;;;5458232;26;19995;-37
2024/04/14 09:27:08;;;;;;;3.90;1.38;;;18.10;71.00;;;;;;5459115;26;20009;-37
2024/04/14 09:29:34;;;;;;;3.65;1.30;;;18.10;70.90;;;;;;5460717;26;20392;-38
2024/04/14 09:32:00;;;;;;;1.95;1.10;;;18.10;70.80;;;;;;5461513;26;20009;-38
2024/04/14 09:34:26;;;;;;;3.25;1.13;;;18.20;70.80;;;;;;5466607;26;20301;-37
2024/04/14 09:36:52;;;;;;;3.15;1.40;;;18.20;70.80;;;;;;5465905;26;20046;-37
2024/04/14 09:39:23;;;;;;;4.35;1.50;;;18.20;70.70;;;;;;5466046;26;19995;-37
2024/04/14 09:41:48;;;;;;;3.60;1.42;;;18.30;70.70;;;;;;5458655;26;20055;-38
2024/04/14 09:44:15;;;;;;;3.47;1.60;;;18.20;70.50;;;;;;5482169;26;20010;-38
2024/04/14 09:46:43;;;;;;;3.88;1.27;;;18.30;70.50;;;;;;5473805;26;20006;-37
2024/04/14 09:49:09;;;;;;;3.10;1.20;;;18.30;70.30;;;;;;5457250;26;20022;-38
2024/04/14 09:51:36;;;;;;;3.65;1.80;;;18.40;70.30;;;;;;5463074;26;20071;-37
2024/04/14 09:54:02;;;;;;;2.22;1.10;;;18.40;70.20;;;;;;5480265;26;20002;-38
2024/04/14 09:56:30;;;;;;;2.95;1.20;;;18.40;70.10;;;;;;5480446;26;19999;-38
2024/04/14 09:58:56;;;;;;;2.22;1.25;;;18.50;70.00;;;;;;5457763;26;20003;-38
2024/04/14 10:01:34;;;;;;;3.78;1.33;;;18.40;69.80;;;;;;5465037;26;20521;-39
2024/04/14 10:04:02;;;;;;;2.65;1.20;;;18.50;69.80;;;;;;5471070;26;19999;-39
2024/04/14 10:06:30;;;;;;;3.92;1.48;;;18.50;69.80;;;;;;5460853;26;19999;-38
2024/04/14 10:08:56;;;;;;;3.53;1.48;;;18.60;69.70;;;;;;5457757;26;19998;-40
2024/04/14 10:11:25;;;;;;;3.47;1.30;;;18.60;69.60;;;;;;5461989;26;20129;-38
2024/04/14 10:13:55;;;;;;;2.13;1.20;;;18.60;69.50;;;;;;5462661;26;20790;-39
2024/04/14 10:16:22;;;;;;;4.82;1.38;;;18.70;69.50;;;;;;5485762;26;19998;-38
2024/04/14 10:18:50;;;;;;;3.38;1.25;;;18.70;69.50;;;;;;5457873;26;20044;-38
2024/04/14 10:21:22;;;;;;;3.75;1.30;;;18.70;69.50;;;;;;5473491;26;20019;-39
2024/04/14 10:23:47;;;;;;;3.42;1.25;;;18.80;69.30;;;;;;5468791;26;20007;-45
2024/04/14 10:26:17;;;;;;;3.08;1.20;;;18.80;69.30;;;;;;5473946;26;19994;-38
2024/04/14 10:28:55;;;;;;;2.97;1.42;;;18.90;69.20;;;;;;5469601;26;19994;-41
2024/04/14 10:31:32;;;;;;;3.67;1.20;;;18.90;69.10;;;;;;5472686;26;20087;-38
2024/04/14 10:34:10;;;;;;;3.50;1.50;;;18.90;69.00;;;;;;5482449;26;20006;-39
2024/04/14 10:36:41;;;;;;;2.47;1.30;;;19.00;69.00;;;;;;5471253;26;20002;-41
2024/04/14 10:39:13;;;;;;;3.53;1.42;;;19.00;68.90;;;;;;5474106;26;19999;-39
2024/04/14 10:41:39;;;;;;;3.10;1.40;;;19.10;68.90;;;;;;5474573;26;20002;-39
2024/04/14 10:44:14;;;;;;;3.00;1.15;;;19.10;68.80;;;;;;5473817;26;20080;-40
2024/04/14 10:46:40;;;;;;;3.67;1.40;;;19.20;68.70;;;;;;5465385;26;20003;-39
2024/04/14 10:49:06;;;;;;;3.42;1.15;;;19.20;68.70;;;;;;5459169;26;20052;-39
2024/04/14 10:51:32;;;;;;;3.10;1.40;;;19.30;68.60;;;;;;5461767;26;20002;-39
2024/04/14 10:53:58;;;;;;;2.72;1.30;;;19.30;68.50;;;;;;5460505;26;20479;-39
2024/04/14 10:56:24;;;;;;;3.00;1.00;;;19.40;68.50;;;;;;5463539;26;20375;-39
2024/04/14 10:58:50;;;;;;;3.88;1.30;;;19.40;68.40;;;;;;5463203;26;20006;-39
2024/04/14 11:01:17;;;;;;;2.78;1.10;;;19.50;68.30;;;;;;5462114;26;19995;-38
2024/04/14 11:03:43;;;;;;;2.53;1.00;;;19.60;68.30;;;;;;5461108;26;20350;-39
2024/04/14 11:06:08;;;;;;;2.85;1.10;;;19.60;68.20;;;;;;5459659;26;20014;-39
2024/04/14 11:08:35;;;;;;;3.17;1.10;;;19.70;68.20;;;;;;5468872;26;20003;-38
2024/04/14 11:11:01;;;;;;;2.47;1.25;;;19.70;68.10;;;;;;5465929;26;20465;-38
2024/04/14 11:13:28;;;;;;;1.75;1.05;;;19.80;68.00;;;;;;5462449;26;20075;-38
2024/04/14 11:16:02;;;;;;;1.52;0.90;;;19.90;68.00;;;;;;5480962;26;20012;-38
2024/04/14 11:18:31;;;;;;;2.65;0.98;;;19.90;67.90;;;;;;5469952;26;20028;-38
2024/04/14 11:20:57;;;;;;;1.70;0.95;;;19.90;67.90;;;;;;5475455;26;20052;-38
2024/04/14 11:23:23;;;;;;;2.75;1.08;;;20.00;67.90;;;;;;5478564;26;20006;-37
2024/04/14 11:25:50;;;;;;;2.13;1.10;;;20.00;67.80;;;;;;5479591;26;19998;-38
2024/04/14 11:28:15;;;;;;;2.47;1.10;;;20.10;67.80;;;;;;5481474;26;20002;-37
2024/04/14 11:30:42;;;;;;;2.30;1.10;;;20.10;67.70;;;;;;5458721;26;19999;-38
2024/04/14 11:33:08;;;;;;;2.15;1.15;;;20.10;67.60;;;;;;5464005;26;20006;-38
2024/04/14 11:35:34;;;;;;;2.05;0.85;;;20.20;67.60;;;;;;5489402;26;20082;-38
2024/04/14 11:38:01;;;;;;;4.10;1.00;;;20.30;67.60;;;;;;5472224;26;20963;-37
2024/04/14 11:40:27;;;;;;;1.50;0.95;;;20.30;67.60;;;;;;5460746;26;20135;-37
2024/04/14 11:42:53;;;;;;;1.73;0.90;;;20.30;67.60;;;;;;5472512;26;21872;-38
2024/04/14 11:45:19;;;;;;;1.80;0.85;;;20.40;67.60;;;;;;5469042;26;20410;-41
2024/04/14 11:47:48;;;;;;;2.78;1.13;;;20.40;67.60;;;;;;5480358;26;19998;-40
2024/04/14 11:50:13;;;;;;;2.50;1.00;;;20.40;67.50;;;;;;5463170;26;19999;-39
2024/04/14 11:52:40;;;;;;;1.50;0.95;;;20.40;67.50;;;;;;5432602;26;19994;-38
2024/04/14 11:55:07;;;;;;;2.67;1.00;;;20.50;67.60;;;;;;5484242;26;19998;-40
2024/04/14 11:57:34;;;;;;;2.33;0.98;;;20.50;67.60;;;;;;5486622;26;20441;-39
2024/04/14 12:00:00;;;;;;;1.77;1.20;;;20.50;67.60;;;;;;5469169;26;19998;-39
2024/04/14 12:02:26;;;;;;;3.72;1.20;;;20.60;67.60;;;;;;5476435;26;20347;-39
2024/04/14 12:04:53;;;;;;;1.27;1.00;;;20.60;67.60;;;;;;5481173;26;19994;-39
2024/04/14 12:07:19;;;;;;;2.63;1.10;;;20.60;67.60;;;;;;5464699;26;21196;-43
2024/04/14 12:09:45;;;;;;;2.20;1.08;;;20.70;67.60;;;;;;5463503;26;19998;-40
2024/04/14 12:12:13;;;;;;;3.60;1.20;;;20.70;67.60;;;;;;5479962;26;20010;-41
2024/04/14 12:14:39;;;;;;;2.13;0.90;;;20.80;67.60;;;;;;5461080;26;20074;-38
2024/04/14 12:17:04;;;;;;;2.58;1.00;;;20.80;67.60;;;;;;5469675;26;20018;-38
2024/04/14 12:19:30;;;;;;;1.58;1.00;;;20.80;67.60;;;;;;5493027;26;20458;-38
2024/04/14 12:21:56;;;;;;;3.75;0.90;;;20.80;67.60;;;;;;5485586;26;20018;-37
2024/04/14 12:24:23;;;;;;;1.38;0.95;;;20.90;67.60;;;;;;5484040;26;19998;-38
2024/04/14 12:26:49;;;;;;;1.13;0.80;;;20.90;67.60;;;;;;5460491;26;20064;-38
2024/04/14 12:29:14;;;;;;;2.78;1.10;;;20.90;67.50;;;;;;5411520;26;20006;-38
2024/04/14 12:31:40;;;;;;;2.42;0.88;;;20.90;67.50;;;;;;5472483;26;20002;-38
2024/04/14 12:34:06;;;;;;;2.17;1.02;;;20.90;67.50;;;;;;5459686;26;19998;-38
2024/04/14 12:36:32;;;;;;;2.50;1.00;;;21.00;67.50;;;;;;5468169;26;20078;-38
2024/04/14 12:38:57;;;;;;;3.33;1.10;;;21.00;67.50;;;;;;5460505;26;20461;-38
2024/04/14 12:41:23;;;;;;;2.00;1.02;;;21.00;67.50;;;;;;5472560;26;20010;-38
2024/04/14 12:43:49;;;;;;;3.60;1.10;;;21.10;67.50;;;;;;5461190;26;20044;-38